createdAt,value
2022-10-16T00:02:40.614Z,100817.56
2022-10-16T00:05:28.368Z,100814.19
2022-10-16T00:08:15.599Z,100815.13
2022-10-16T00:11:15.442Z,100812.50
2022-10-16T00:14:08.362Z,100811.66
2022-10-16T00:16:55.493Z,100818.72
2022-10-16T00:19:42.630Z,100817.00
2022-10-16T00:22:30.195Z,100813.75
2022-10-16T00:25:17.450Z,100812.97
2022-10-16T00:28:05.441Z,100824.44
2022-10-16T00:30:53.247Z,100819.28
2022-10-16T00:33:41.892Z,100818.59
2022-10-16T00:36:30.313Z,100821.41
2022-10-16T00:39:20.472Z,100824.03
2022-10-16T00:42:07.943Z,100819.81
2022-10-16T00:44:58.989Z,100822.44
2022-10-16T00:47:50.674Z,100826.94
2022-10-16T00:50:38.345Z,100820.00
2022-10-16T00:53:28.203Z,100823.56
2022-10-16T00:56:15.447Z,100825.34
2022-10-16T00:59:14.981Z,100815.88
2022-10-16T01:02:05.307Z,100832.47
2022-10-16T01:04:55.376Z,100822.91
2022-10-16T01:08:35.436Z,100821.22
2022-10-16T01:11:56.807Z,100820.38
2022-10-16T01:15:03.457Z,100812.50
2022-10-16T01:18:04.742Z,100811.72
2022-10-16T01:21:14.108Z,100811.97
2022-10-16T01:24:39.058Z,100818.09
2022-10-16T01:27:36.889Z,100811.88
2022-10-16T01:30:32.269Z,100833.66
2022-10-16T01:33:29.310Z,100827.47
2022-10-16T01:36:38.390Z,100810.88
2022-10-16T01:39:34.601Z,100819.41
2022-10-16T01:42:32.170Z,100819.41
2022-10-16T01:45:22.245Z,100817.56
2022-10-16T01:48:14.845Z,100809.78
2022-10-16T01:51:14.453Z,100821.13
2022-10-16T01:54:04.792Z,100822.91
2022-10-16T01:56:52.638Z,100819.31
2022-10-16T01:59:52.224Z,100822.72
2022-10-16T02:02:47.074Z,100821.84
2022-10-16T02:05:47.141Z,100823.75
2022-10-16T02:08:36.064Z,100832.47
2022-10-16T02:11:23.245Z,100824.50
2022-10-16T02:14:10.480Z,100826.19
2022-10-16T02:16:57.967Z,100833.22
2022-10-16T02:19:50.558Z,100843.72
2022-10-16T02:22:48.218Z,100834.16
2022-10-16T02:25:44.143Z,100836.88
2022-10-16T02:28:26.345Z,100829.94
2022-10-16T02:31:03.091Z,100826.56
2022-10-16T02:33:32.809Z,100827.47
2022-10-16T02:36:00.550Z,100823.16
2022-10-16T02:38:31.323Z,100820.72
2022-10-16T02:40:58.826Z,100830.34
2022-10-16T02:43:27.413Z,100825.31
2022-10-16T02:45:54.783Z,100837.56
2022-10-16T02:48:22.069Z,100849.03
2022-10-16T02:50:49.199Z,100842.91
2022-10-16T02:53:18.342Z,100828.22
2022-10-16T02:55:45.610Z,100823.97
2022-10-16T02:58:12.904Z,100824.91
2022-10-16T03:00:40.742Z,100819.56
2022-10-16T03:03:08.095Z,100811.78
2022-10-16T03:05:35.320Z,100827.63
2022-10-16T03:08:02.544Z,100830.34
2022-10-16T03:10:29.840Z,100837.47
2022-10-16T03:12:57.017Z,100837.56
2022-10-16T03:15:24.362Z,100838.47
2022-10-16T03:17:51.562Z,100837.72
2022-10-16T03:20:18.774Z,100840.34
2022-10-16T03:22:46.149Z,100841.28
2022-10-16T03:25:13.484Z,100854.50
2022-10-16T03:27:40.923Z,100851.13
2022-10-16T03:30:09.771Z,100857.22
2022-10-16T03:32:37.071Z,100864.25
2022-10-16T03:35:04.764Z,100858.25
2022-10-16T03:37:32.038Z,100866.22
2022-10-16T03:40:00.255Z,100867.03
2022-10-16T03:42:27.454Z,100869.75
2022-10-16T03:44:54.613Z,100872.47
2022-10-16T03:47:24.424Z,100862.81
2022-10-16T03:49:51.965Z,100859.44
2022-10-16T03:54:51.611Z,100850.81
2022-10-16T03:57:19.098Z,100862.16
2022-10-16T03:59:47.917Z,100866.66
2022-10-16T04:02:15.218Z,100870.09
2022-10-16T04:04:42.380Z,100869.19
2022-10-16T04:07:09.665Z,100872.72
2022-10-16T04:09:36.951Z,100867.56
2022-10-16T04:12:06.377Z,100879.78
2022-10-16T04:14:33.652Z,100885.94
2022-10-16T04:17:00.864Z,100885.09
2022-10-16T04:19:28.038Z,100884.31
2022-10-16T04:21:55.471Z,100889.56
2022-10-16T04:24:22.646Z,100883.50
2022-10-16T04:26:50.288Z,100897.44
2022-10-16T04:29:18.384Z,100895.69
2022-10-16T04:31:45.631Z,100901.88
2022-10-16T04:34:12.839Z,100902.59
2022-10-16T04:36:40.853Z,100896.53
2022-10-16T04:39:07.986Z,100893.81
2022-10-16T04:41:35.287Z,100888.47
2022-10-16T04:44:02.473Z,100900.75
2022-10-16T04:46:29.631Z,100905.06
2022-10-16T04:48:56.784Z,100906.00
2022-10-16T04:51:24.169Z,100904.22
2022-10-16T04:53:51.450Z,100912.94
2022-10-16T04:56:18.819Z,100912.94
2022-10-16T04:58:46.006Z,100915.56
2022-10-16T05:01:13.630Z,100914.63
2022-10-16T05:03:40.923Z,100921.59
2022-10-16T05:06:08.812Z,100916.44
2022-10-16T05:08:38.411Z,100922.50
2022-10-16T05:11:05.972Z,100926.91
2022-10-16T05:13:33.109Z,100931.31
2022-10-16T05:16:00.328Z,100930.47
2022-10-16T05:18:27.512Z,100940.13
2022-10-16T05:20:56.967Z,100948.09
2022-10-16T05:23:24.214Z,100949.84
2022-10-16T05:25:59.766Z,100946.47
2022-10-16T05:28:29.915Z,100953.50
2022-10-16T05:30:58.403Z,100963.13
2022-10-16T05:33:26.804Z,100962.38
2022-10-16T05:35:53.963Z,100968.47
2022-10-16T05:38:21.327Z,100965.84
2022-10-16T05:40:54.681Z,100972.78
2022-10-16T05:43:22.391Z,100983.47
2022-10-16T05:46:05.235Z,100985.25
2022-10-16T05:48:33.628Z,100986.16
2022-10-16T05:51:08.021Z,101001.91
2022-10-16T05:53:39.049Z,101002.81
2022-10-16T05:56:10.286Z,101002.91
2022-10-16T05:58:41.347Z,101018.66
2022-10-16T06:01:18.136Z,101022.22
2022-10-16T06:03:46.043Z,101024.84
2022-10-16T06:06:25.062Z,101028.47
2022-10-16T06:08:53.940Z,101033.66
2022-10-16T06:11:29.690Z,101035.34
2022-10-16T06:14:03.602Z,101036.25
2022-10-16T06:16:30.843Z,101042.34
2022-10-16T06:18:59.100Z,101043.31
2022-10-16T06:21:28.740Z,101042.44
2022-10-16T06:23:58.070Z,101049.38
2022-10-16T06:26:30.775Z,101051.34
2022-10-16T06:29:00.416Z,101059.03
2022-10-16T06:31:31.876Z,101056.41
2022-10-16T06:34:02.014Z,101054.63
2022-10-16T06:36:29.258Z,101065.13
2022-10-16T06:38:56.624Z,101065.03
2022-10-16T06:41:24.652Z,101070.28
2022-10-16T06:43:53.300Z,101072.00
2022-10-16T06:46:24.802Z,101082.31
2022-10-16T06:48:52.334Z,101088.16
2022-10-16T06:51:24.214Z,101094.09
2022-10-16T06:54:04.103Z,101092.91
2022-10-16T06:56:33.645Z,101100.38
2022-10-16T06:59:01.681Z,101100.81
2022-10-16T07:01:30.794Z,101105.63
2022-10-16T07:03:58.738Z,101104.38
2022-10-16T07:06:31.121Z,101100.50
2022-10-16T07:08:58.316Z,101109.66
2022-10-16T07:11:25.824Z,101115.41
2022-10-16T07:13:55.852Z,101121.94
2022-10-16T07:16:28.735Z,101124.97
2022-10-16T07:19:00.047Z,101124.53
2022-10-16T07:21:36.201Z,101125.78
2022-10-16T07:24:07.028Z,101141.13
2022-10-16T07:26:40.057Z,101143.50
2022-10-16T07:29:18.916Z,101149.25
2022-10-16T07:31:50.682Z,101152.72
2022-10-16T07:34:20.547Z,101153.31
2022-10-16T07:36:51.476Z,101162.63
2022-10-16T07:39:19.222Z,101170.25
2022-10-16T07:41:46.682Z,101175.44
2022-10-16T07:44:14.042Z,101174.47
2022-10-16T07:46:41.293Z,101179.63
2022-10-16T07:49:09.852Z,101184.72
2022-10-16T07:51:37.006Z,101185.50
2022-10-16T07:54:04.258Z,101188.78
2022-10-16T07:56:33.752Z,101185.16
2022-10-16T07:59:01.038Z,101186.63
2022-10-16T08:01:28.710Z,101191.63
2022-10-16T08:03:56.148Z,101199.25
2022-10-16T08:06:27.679Z,101208.75
2022-10-16T08:09:00.946Z,101201.63
2022-10-16T08:11:28.235Z,101216.19
2022-10-16T08:13:55.483Z,101209.06
2022-10-16T08:16:23.120Z,101214.22
2022-10-16T08:18:52.345Z,101224.66
2022-10-16T08:21:24.211Z,101218.28
2022-10-16T08:23:58.120Z,101224.22
2022-10-16T08:26:28.164Z,101226.59
2022-10-16T08:28:56.632Z,101236.88
2022-10-16T08:31:25.273Z,101249.75
2022-10-16T08:33:53.691Z,101248.56
2022-10-16T08:36:21.280Z,101246.56
2022-10-16T08:38:52.903Z,101251.56
2022-10-16T08:41:51.069Z,101257.47
2022-10-16T08:44:42.700Z,101262.38
2022-10-16T08:47:26.220Z,101261.16
2022-10-16T08:50:11.128Z,101270.50
2022-10-16T08:52:45.075Z,101268.22
2022-10-16T08:55:59.601Z,101277.28
2022-10-16T08:58:31.617Z,101281.22
2022-10-16T09:01:07.084Z,101277.38
2022-10-16T09:03:55.932Z,101279.63
2022-10-16T09:06:48.348Z,101283.69
2022-10-16T09:09:51.915Z,101282.63
2022-10-16T09:12:32.714Z,101282.44
2022-10-16T09:15:25.595Z,101295.22
2022-10-16T09:18:46.994Z,101298.34
2022-10-16T09:21:25.191Z,101308.59
2022-10-16T09:23:53.503Z,101307.63
2022-10-16T09:28:54.425Z,101310.63
2022-10-16T09:31:23.805Z,101303.50
2022-10-16T09:34:10.333Z,101304.16
2022-10-16T09:36:45.678Z,101322.25
2022-10-16T09:39:13.502Z,101313.09
2022-10-16T09:41:48.641Z,101317.13
2022-10-16T09:44:36.317Z,101314.84
2022-10-16T09:47:19.334Z,101315.94
2022-10-16T09:50:06.996Z,101316.59
2022-10-16T09:52:34.868Z,101324.84
2022-10-16T09:55:19.034Z,101317.38
2022-10-16T09:57:56.368Z,101323.84
2022-10-16T10:00:26.030Z,101328.72
2022-10-16T10:05:30.413Z,101332.16
2022-10-16T10:08:07.165Z,101328.25
2022-10-16T10:10:45.922Z,101336.63
2022-10-16T10:13:27.791Z,101333.47
2022-10-16T10:15:56.024Z,101338.47
2022-10-16T10:18:25.019Z,101336.97
2022-10-16T10:21:06.198Z,101335.13
2022-10-16T10:23:33.497Z,101338.38
2022-10-16T10:26:19.381Z,101344.28
2022-10-16T10:28:58.155Z,101341.34
2022-10-16T10:31:46.876Z,101347.38
2022-10-16T10:35:19.819Z,101360.63
2022-10-16T10:38:18.619Z,101359.06
2022-10-16T10:41:31.613Z,101362.16
2022-10-16T10:44:32.874Z,101369.28
2022-10-16T10:47:43.772Z,101360.66
2022-10-16T10:50:51.781Z,101359.06
2022-10-16T10:53:50.562Z,101355.25
2022-10-16T10:57:09.349Z,101357.00
2022-10-16T11:00:24.330Z,101357.56
2022-10-16T11:03:43.808Z,101361.75
2022-10-16T11:06:25.558Z,101368.72
2022-10-16T11:09:03.355Z,101374.53
2022-10-16T11:12:01.393Z,101375.31
2022-10-16T11:14:59.568Z,101373.34
2022-10-16T11:18:20.954Z,101377.13
2022-10-16T11:21:01.314Z,101375.56
2022-10-16T11:23:47.613Z,101373.91
2022-10-16T11:26:27.088Z,101380.00
2022-10-16T11:28:59.380Z,101374.94
2022-10-16T11:32:09.996Z,101379.19
2022-10-16T11:35:00.984Z,101367.22
2022-10-16T11:37:40.016Z,101376.69
2022-10-16T11:40:31.798Z,101381.97
2022-10-16T11:43:22.754Z,101380.38
2022-10-16T11:45:56.310Z,101385.00
2022-10-16T11:49:10.413Z,101387.16
2022-10-16T11:52:06.921Z,101388.41
2022-10-16T11:54:54.994Z,101390.13
2022-10-16T11:57:29.300Z,101395.13
2022-10-16T12:00:15.057Z,101392.13
2022-10-16T12:02:50.949Z,101401.22
2022-10-16T12:06:07.201Z,101409.16
2022-10-16T12:08:36.429Z,101398.13
2022-10-16T12:11:29.825Z,101390.41
2022-10-16T12:14:12.023Z,101394.28
2022-10-16T12:17:02.083Z,101392.31
2022-10-16T12:19:31.809Z,101388.66
2022-10-16T12:22:05.740Z,101396.38
2022-10-16T12:24:44.205Z,101407.22
2022-10-16T12:27:33.934Z,101414.44
2022-10-16T12:30:07.620Z,101411.25
2022-10-16T12:32:48.392Z,101412.47
2022-10-16T12:35:46.040Z,101404.88
2022-10-16T12:38:48.286Z,101403.28
2022-10-16T12:41:40.768Z,101406.25
2022-10-16T12:44:33.232Z,101412.63
2022-10-16T12:47:02.196Z,101403.00
2022-10-16T12:49:29.257Z,101397.81
2022-10-16T12:51:57.751Z,101393.59
2022-10-16T12:54:48.143Z,101397.41
2022-10-16T12:58:15.852Z,101399.94
2022-10-16T13:00:58.916Z,101406.09
2022-10-16T13:03:55.151Z,101406.59
2022-10-16T13:06:52.152Z,101407.84
2022-10-16T13:09:55.230Z,101411.72
2022-10-16T13:13:00.573Z,101401.31
2022-10-16T13:16:04.302Z,101404.72
2022-10-16T13:19:02.629Z,101406.94
2022-10-16T13:22:01.473Z,101406.31
2022-10-16T13:25:16.732Z,101412.72
2022-10-16T13:28:08.800Z,101410.94
2022-10-16T13:30:51.757Z,101406.00
2022-10-16T13:33:35.963Z,101397.03
2022-10-16T13:36:05.210Z,101414.19
2022-10-16T13:38:37.203Z,101411.19
2022-10-16T13:41:21.829Z,101421.41
2022-10-16T13:43:57.119Z,101421.88
2022-10-16T13:46:27.315Z,101425.00
2022-10-16T13:49:13.304Z,101429.09
2022-10-16T13:51:40.559Z,101431.25
2022-10-16T13:54:12.642Z,101424.88
2022-10-16T13:56:42.762Z,101423.91
2022-10-16T13:59:38.539Z,101424.97
2022-10-16T14:02:40.167Z,101426.16
2022-10-16T14:05:11.659Z,101428.09
2022-10-16T14:07:40.165Z,101430.75
2022-10-16T14:10:33.653Z,101431.47
2022-10-16T14:13:07.983Z,101431.13
2022-10-16T14:15:38.145Z,101438.25
2022-10-16T14:18:06.079Z,101432.25
2022-10-16T14:20:35.762Z,101435.19
2022-10-16T14:23:39.501Z,101433.13
2022-10-16T14:26:21.225Z,101430.09
2022-10-16T14:29:04.057Z,101433.34
2022-10-16T14:31:37.264Z,101420.56
2022-10-16T14:34:37.035Z,101417.50
2022-10-16T14:37:27.821Z,101432.69
2022-10-16T14:39:57.305Z,101422.22
2022-10-16T14:42:26.869Z,101425.94
2022-10-16T14:44:57.863Z,101429.56
2022-10-16T14:47:28.109Z,101418.31
2022-10-16T14:49:58.576Z,101412.06
2022-10-16T14:52:26.110Z,101409.66
2022-10-16T14:54:57.505Z,101410.59
2022-10-16T14:57:39.286Z,101410.59
2022-10-16T15:00:22.457Z,101402.41
2022-10-16T15:02:51.248Z,101414.00
2022-10-16T15:05:28.369Z,101417.59
2022-10-16T15:07:56.368Z,101415.06
2022-10-16T15:10:28.628Z,101412.53
2022-10-16T15:12:56.506Z,101406.41
2022-10-16T15:15:41.392Z,101398.75
2022-10-16T15:18:08.685Z,101403.56
2022-10-16T15:20:40.104Z,101407.31
2022-10-16T15:23:18.589Z,101404.88
2022-10-16T15:25:56.709Z,101412.09
2022-10-16T15:28:26.829Z,101409.53
2022-10-16T15:30:58.068Z,101403.53
2022-10-16T15:33:35.797Z,101398.47
2022-10-16T15:36:07.308Z,101407.47
2022-10-16T15:38:34.962Z,101420.22
2022-10-16T15:41:02.310Z,101416.09
2022-10-16T15:43:29.830Z,101412.13
2022-10-16T15:46:09.587Z,101412.34
2022-10-16T15:48:36.785Z,101413.53
2022-10-16T15:51:08.981Z,101415.56
2022-10-16T15:53:37.155Z,101421.22
2022-10-16T15:56:10.595Z,101420.56
2022-10-16T15:58:38.990Z,101404.91
2022-10-16T16:01:07.532Z,101395.41
2022-10-16T16:03:35.019Z,101402.69
2022-10-16T16:06:12.157Z,101419.03
2022-10-16T16:08:40.363Z,101413.25
2022-10-16T16:11:12.207Z,101415.38
2022-10-16T16:13:41.481Z,101412.94
2022-10-16T16:16:13.251Z,101422.19
2022-10-16T16:18:41.447Z,101403.03
2022-10-16T16:21:10.597Z,101400.50
2022-10-16T16:23:38.453Z,101401.66
2022-10-16T16:26:33.474Z,101400.28
2022-10-16T16:29:01.144Z,101402.50
2022-10-16T16:31:32.000Z,101405.59
2022-10-16T16:33:59.762Z,101403.38
2022-10-16T16:36:27.223Z,101410.69
2022-10-16T16:38:54.457Z,101414.38
2022-10-16T16:41:27.183Z,101424.22
2022-10-16T16:43:56.249Z,101415.69
2022-10-16T16:46:23.739Z,101422.84
2022-10-16T16:48:51.411Z,101416.84
2022-10-16T16:51:20.755Z,101415.22
2022-10-16T16:53:53.144Z,101418.97
2022-10-16T16:56:22.998Z,101406.88
2022-10-16T16:58:54.115Z,101415.16
2022-10-16T17:01:24.126Z,101419.81
2022-10-16T17:03:55.689Z,101424.44
2022-10-16T17:06:30.540Z,101431.66
2022-10-16T17:08:59.071Z,101433.66
2022-10-16T17:11:28.386Z,101433.75
2022-10-16T17:13:59.097Z,101444.44
2022-10-16T17:16:34.829Z,101441.91
2022-10-16T17:19:09.461Z,101450.78
2022-10-16T17:21:37.663Z,101445.69
2022-10-16T17:24:06.043Z,101444.97
2022-10-16T17:26:38.213Z,101435.44
2022-10-16T17:29:06.325Z,101434.03
2022-10-16T17:31:37.476Z,101427.38
2022-10-16T17:34:12.167Z,101428.53
2022-10-16T17:36:44.167Z,101429.69
2022-10-16T17:39:17.593Z,101427.13
2022-10-16T17:41:50.614Z,101429.16
2022-10-16T17:44:21.148Z,101425.03
2022-10-16T17:46:52.721Z,101426.16
2022-10-16T17:49:21.472Z,101432.56
2022-10-16T17:51:54.468Z,101424.94
2022-10-16T17:54:21.747Z,101430.25
2022-10-16T17:56:49.025Z,101435.72
2022-10-16T17:59:16.657Z,101433.19
2022-10-16T18:01:46.373Z,101432.34
2022-10-16T18:04:17.495Z,101442.06
2022-10-16T18:06:46.199Z,101449.22
2022-10-16T18:09:18.944Z,101443.94
2022-10-16T18:11:49.267Z,101435.09
2022-10-16T18:14:18.364Z,101449.13
2022-10-16T18:16:48.169Z,101450.84
2022-10-16T18:19:15.498Z,101456.94
2022-10-16T18:21:43.073Z,101468.50
2022-10-16T18:24:10.785Z,101475.44
2022-10-16T18:26:39.021Z,101501.13
2022-10-16T18:29:06.867Z,101520.56
2022-10-16T18:31:36.764Z,101531.13
2022-10-16T18:34:06.255Z,101544.22
2022-10-16T18:36:36.183Z,101545.09
2022-10-16T18:39:11.443Z,101529.97
2022-10-16T18:41:44.778Z,101537.28
2022-10-16T18:44:13.274Z,101541.97
2022-10-16T18:46:41.184Z,101539.72
2022-10-16T18:49:09.031Z,101527.19
2022-10-16T18:51:41.431Z,101522.59
2022-10-16T18:54:12.435Z,101518.75
2022-10-16T18:56:40.716Z,101528.94
2022-10-16T18:59:10.078Z,101542.50
2022-10-16T19:01:42.614Z,101551.56
2022-10-16T19:04:14.190Z,101545.59
2022-10-16T19:06:49.526Z,101533.47
2022-10-16T19:09:20.228Z,101521.50
2022-10-16T19:11:48.284Z,101509.31
2022-10-16T19:14:18.178Z,101502.56
2022-10-16T19:16:45.482Z,101487.00
2022-10-16T19:19:18.534Z,101497.84
2022-10-16T19:21:47.815Z,101515.63
2022-10-16T19:24:17.546Z,101512.25
2022-10-16T19:26:44.966Z,101508.84
2022-10-16T19:29:12.729Z,101502.72
2022-10-16T19:31:41.223Z,101493.19
2022-10-16T19:34:10.912Z,101488.94
2022-10-16T19:36:40.061Z,101498.75
2022-10-16T19:39:17.798Z,101506.75
2022-10-16T19:41:47.258Z,101520.09
2022-10-16T19:44:20.279Z,101523.75
2022-10-16T19:46:49.077Z,101542.97
2022-10-16T19:49:21.168Z,101545.53
2022-10-16T19:51:52.270Z,101542.88
2022-10-16T19:54:20.061Z,101550.69
2022-10-16T19:56:47.710Z,101548.84
2022-10-16T19:59:19.002Z,101534.69
2022-10-16T20:01:48.421Z,101535.66
2022-10-16T20:04:16.726Z,101535.66
2022-10-16T20:06:45.548Z,101525.94
2022-10-16T20:09:12.880Z,101515.59
2022-10-16T20:11:40.130Z,101518.41
2022-10-16T20:14:08.192Z,101526.50
2022-10-16T20:16:35.577Z,101524.81
2022-10-16T20:19:04.599Z,101526.75
2022-10-16T20:21:34.719Z,101526.75
2022-10-16T20:24:05.195Z,101507.56
2022-10-16T20:26:32.680Z,101513.75
2022-10-16T20:28:59.976Z,101511.22
2022-10-16T20:31:31.103Z,101504.28
2022-10-16T20:34:05.046Z,101500.00
2022-10-16T20:36:33.475Z,101500.94
2022-10-16T20:39:01.533Z,101503.56
2022-10-16T20:41:28.861Z,101506.31
2022-10-16T20:43:56.142Z,101502.00
2022-10-16T20:46:27.474Z,101510.84
2022-10-16T20:49:06.008Z,101510.00
2022-10-16T20:51:39.841Z,101503.09
2022-10-16T20:54:11.339Z,101509.22
2022-10-16T20:56:38.815Z,101505.81
2022-10-16T20:59:06.971Z,101507.53
2022-10-16T21:01:36.484Z,101497.91
2022-10-16T21:04:08.467Z,101492.66
2022-10-16T21:06:39.528Z,101490.19
2022-10-16T21:09:09.299Z,101491.22
2022-10-16T21:11:38.209Z,101494.22
2022-10-16T21:14:08.953Z,101497.03
2022-10-16T21:16:36.270Z,101486.66
2022-10-16T21:19:04.240Z,101475.53
2022-10-16T21:21:38.059Z,101473.94
2022-10-16T21:24:10.944Z,101474.19
2022-10-16T21:26:40.929Z,101484.66
2022-10-16T21:29:08.229Z,101475.25
2022-10-16T21:31:36.810Z,101477.19
2022-10-16T21:34:04.576Z,101477.28
2022-10-16T21:36:40.114Z,101477.38
2022-10-16T21:39:14.103Z,101480.94
2022-10-16T21:41:44.958Z,101479.41
2022-10-16T21:44:13.577Z,101475.16
2022-10-16T21:46:44.440Z,101476.13
2022-10-16T21:49:19.613Z,101471.88
2022-10-16T21:51:51.196Z,101464.97
2022-10-16T21:54:24.253Z,101456.31
2022-10-16T21:56:52.965Z,101454.72
2022-10-16T21:59:20.434Z,101457.44
2022-10-16T22:01:48.103Z,101449.69
2022-10-16T22:04:17.182Z,101454.97
2022-10-16T22:06:44.819Z,101456.84
2022-10-16T22:09:14.525Z,101457.78
2022-10-16T22:11:45.270Z,101457.94
2022-10-16T22:14:18.658Z,101451.00
2022-10-16T22:16:47.407Z,101448.47
2022-10-16T22:19:20.098Z,101446.75
2022-10-16T22:21:51.669Z,101444.13
2022-10-16T22:24:19.230Z,101446.00
2022-10-16T22:26:47.723Z,101447.00
2022-10-16T22:29:16.823Z,101439.19
2022-10-16T22:31:45.317Z,101446.25
2022-10-16T22:34:14.689Z,101459.44
2022-10-16T22:36:41.916Z,101465.53
2022-10-16T22:39:09.895Z,101450.41
2022-10-16T22:41:37.538Z,101460.84
2022-10-16T22:44:04.958Z,101462.56
2022-10-16T22:46:32.338Z,101463.38
2022-10-16T22:48:59.697Z,101459.75
2022-10-16T22:51:28.351Z,101459.56
2022-10-16T22:53:59.497Z,101459.41
2022-10-16T22:56:27.178Z,101456.69
2022-10-16T22:58:54.631Z,101455.66
2022-10-16T23:01:39.018Z,101459.97
2022-10-16T23:04:07.645Z,101459.97
2022-10-16T23:06:35.497Z,101450.31
2022-10-16T23:09:03.894Z,101437.22
2022-10-16T23:11:31.495Z,101438.81
2022-10-16T23:13:58.958Z,101438.06
2022-10-16T23:16:26.280Z,101432.81
2022-10-16T23:18:53.753Z,101431.19
2022-10-16T23:21:25.355Z,101428.72
2022-10-16T23:23:54.957Z,101430.44
2022-10-16T23:26:27.404Z,101420.75
2022-10-16T23:28:58.635Z,101423.28
2022-10-16T23:31:27.388Z,101423.88
2022-10-16T23:33:57.961Z,101430.00
2022-10-16T23:36:25.694Z,101427.28
2022-10-16T23:38:54.076Z,101429.81
2022-10-16T23:41:22.849Z,101426.16
2022-10-16T23:43:51.377Z,101427.66
2022-10-16T23:46:18.731Z,101422.22
2022-10-16T23:48:46.318Z,101417.66
2022-10-16T23:51:14.017Z,101407.94
2022-10-16T23:53:41.296Z,101403.69
2022-10-16T23:56:09.317Z,101401.06
2022-10-16T23:58:36.830Z,101411.41
